sensor_id;sensor_type;location;lat;lon;timestamp;P1;durP1;ratioP1;P2;durP2;ratioP2
33993;SDS011;20673;48.980;8.138;2022-10-16T00:01:16;7.33;;;2.75;;
33993;SDS011;20673;48.980;8.138;2022-10-16T00:03:45;3.77;;;2.60;;
33993;SDS011;20673;48.980;8.138;2022-10-16T00:06:13;4.40;;;2.45;;
33993;SDS011;20673;48.980;8.138;2022-10-16T00:08:42;4.85;;;2.40;;
33993;SDS011;20673;48.980;8.138;2022-10-16T00:11:10;6.50;;;2.43;;
33993;SDS011;20673;48.980;8.138;2022-10-16T00:13:46;5.87;;;2.30;;
33993;SDS011;20673;48.980;8.138;2022-10-16T00:16:15;6.30;;;2.47;;
33993;SDS011;20673;48.980;8.138;2022-10-16T00:18:42;5.85;;;2.60;;
33993;SDS011;20673;48.980;8.138;2022-10-16T00:21:09;4.70;;;3.25;;
33993;SDS011;20673;48.980;8.138;2022-10-16T00:23:39;3.75;;;2.20;;
33993;SDS011;20673;48.980;8.138;2022-10-16T00:26:08;4.20;;;2.58;;
33993;SDS011;20673;48.980;8.138;2022-10-16T00:28:37;7.65;;;2.75;;
33993;SDS011;20673;48.980;8.138;2022-10-16T00:31:05;6.45;;;2.85;;
33993;SDS011;20673;48.980;8.138;2022-10-16T00:33:35;3.97;;;2.40;;
33993;SDS011;20673;48.980;8.138;2022-10-16T00:36:04;4.10;;;2.30;;
33993;SDS011;20673;48.980;8.138;2022-10-16T00:38:32;3.27;;;2.00;;
33993;SDS011;20673;48.980;8.138;2022-10-16T00:40:58;5.43;;;2.73;;
33993;SDS011;20673;48.980;8.138;2022-10-16T00:46:13;5.83;;;2.70;;
33993;SDS011;20673;48.980;8.138;2022-10-16T00:48:52;6.97;;;3.33;;
33993;SDS011;20673;48.980;8.138;2022-10-16T00:51:49;3.25;;;2.60;;
33993;SDS011;20673;48.980;8.138;2022-10-16T00:54:09;3.30;;;2.35;;
33993;SDS011;20673;48.980;8.138;2022-10-16T00:56:44;4.83;;;3.12;;
33993;SDS011;20673;48.980;8.138;2022-10-16T00:59:29;4.50;;;3.07;;
33993;SDS011;20673;48.980;8.138;2022-10-16T01:01:59;6.20;;;2.60;;
33993;SDS011;20673;48.980;8.138;2022-10-16T01:04:28;5.23;;;2.60;;
33993;SDS011;20673;48.980;8.138;2022-10-16T01:13:11;4.60;;;2.30;;
33993;SDS011;20673;48.980;8.138;2022-10-16T01:15:54;5.37;;;2.37;;
33993;SDS011;20673;48.980;8.138;2022-10-16T01:18:47;2.47;;;2.20;;
33993;SDS011;20673;48.980;8.138;2022-10-16T01:30:10;3.57;;;2.10;;
33993;SDS011;20673;48.980;8.138;2022-10-16T01:32:52;4.47;;;2.43;;
33993;SDS011;20673;48.980;8.138;2022-10-16T01:35:39;3.93;;;2.17;;
33993;SDS011;20673;48.980;8.138;2022-10-16T01:38:16;3.20;;;2.40;;
33993;SDS011;20673;48.980;8.138;2022-10-16T01:40:55;4.07;;;1.97;;
33993;SDS011;20673;48.980;8.138;2022-10-16T01:43:33;3.12;;;2.60;;
33993;SDS011;20673;48.980;8.138;2022-10-16T01:46:03;3.77;;;2.70;;
33993;SDS011;20673;48.980;8.138;2022-10-16T01:48:31;7.70;;;2.65;;
33993;SDS011;20673;48.980;8.138;2022-10-16T01:51:01;2.93;;;2.03;;
33993;SDS011;20673;48.980;8.138;2022-10-16T01:53:32;5.45;;;2.35;;
33993;SDS011;20673;48.980;8.138;2022-10-16T01:55:59;4.45;;;2.10;;
33993;SDS011;20673;48.980;8.138;2022-10-16T01:58:29;6.00;;;2.27;;
33993;SDS011;20673;48.980;8.138;2022-10-16T02:01:00;4.33;;;2.33;;
33993;SDS011;20673;48.980;8.138;2022-10-16T02:03:28;5.13;;;2.57;;
33993;SDS011;20673;48.980;8.138;2022-10-16T02:05:55;5.72;;;3.95;;
33993;SDS011;20673;48.980;8.138;2022-10-16T02:08:24;6.03;;;3.40;;
33993;SDS011;20673;48.980;8.138;2022-10-16T02:10:59;4.25;;;2.50;;
33993;SDS011;20673;48.980;8.138;2022-10-16T02:15:55;4.55;;;2.83;;
33993;SDS011;20673;48.980;8.138;2022-10-16T02:18:21;4.67;;;2.87;;
33993;SDS011;20673;48.980;8.138;2022-10-16T02:21:01;5.67;;;2.73;;
33993;SDS011;20673;48.980;8.138;2022-10-16T02:26:28;3.33;;;2.20;;
33993;SDS011;20673;48.980;8.138;2022-10-16T02:29:06;10.70;;;2.83;;
33993;SDS011;20673;48.980;8.138;2022-10-16T02:31:38;3.67;;;2.35;;
33993;SDS011;20673;48.980;8.138;2022-10-16T02:34:08;6.10;;;2.30;;
33993;SDS011;20673;48.980;8.138;2022-10-16T02:36:37;4.67;;;2.10;;
33993;SDS011;20673;48.980;8.138;2022-10-16T02:39:07;6.97;;;2.83;;
33993;SDS011;20673;48.980;8.138;2022-10-16T02:41:35;2.70;;;2.23;;
33993;SDS011;20673;48.980;8.138;2022-10-16T02:44:01;3.33;;;1.90;;
33993;SDS011;20673;48.980;8.138;2022-10-16T02:46:28;4.40;;;2.57;;
33993;SDS011;20673;48.980;8.138;2022-10-16T02:48:54;9.30;;;2.97;;
33993;SDS011;20673;48.980;8.138;2022-10-16T02:51:20;8.90;;;2.47;;
33993;SDS011;20673;48.980;8.138;2022-10-16T02:53:47;5.93;;;2.33;;
33993;SDS011;20673;48.980;8.138;2022-10-16T02:56:13;5.13;;;2.70;;
33993;SDS011;20673;48.980;8.138;2022-10-16T02:58:39;8.00;;;2.40;;
33993;SDS011;20673;48.980;8.138;2022-10-16T03:01:05;6.93;;;2.50;;
33993;SDS011;20673;48.980;8.138;2022-10-16T03:03:31;3.87;;;2.30;;
33993;SDS011;20673;48.980;8.138;2022-10-16T03:05:58;9.65;;;2.85;;
33993;SDS011;20673;48.980;8.138;2022-10-16T03:08:24;7.07;;;2.60;;
33993;SDS011;20673;48.980;8.138;2022-10-16T03:10:51;5.00;;;2.57;;
33993;SDS011;20673;48.980;8.138;2022-10-16T03:13:17;3.40;;;2.20;;
33993;SDS011;20673;48.980;8.138;2022-10-16T03:15:45;5.63;;;2.73;;
33993;SDS011;20673;48.980;8.138;2022-10-16T03:18:12;4.83;;;2.47;;
33993;SDS011;20673;48.980;8.138;2022-10-16T03:20:38;3.30;;;2.47;;
33993;SDS011;20673;48.980;8.138;2022-10-16T03:23:04;4.43;;;2.80;;
33993;SDS011;20673;48.980;8.138;2022-10-16T03:25:32;7.80;;;3.03;;
33993;SDS011;20673;48.980;8.138;2022-10-16T03:27:58;5.93;;;2.70;;
33993;SDS011;20673;48.980;8.138;2022-10-16T03:30:24;4.30;;;2.07;;
33993;SDS011;20673;48.980;8.138;2022-10-16T03:32:50;3.13;;;2.10;;
33993;SDS011;20673;48.980;8.138;2022-10-16T03:35:24;4.07;;;3.07;;
33993;SDS011;20673;48.980;8.138;2022-10-16T03:37:50;5.60;;;2.10;;
33993;SDS011;20673;48.980;8.138;2022-10-16T03:40:16;3.83;;;1.90;;
33993;SDS011;20673;48.980;8.138;2022-10-16T03:42:43;6.23;;;2.97;;
33993;SDS011;20673;48.980;8.138;2022-10-16T03:45:10;3.37;;;2.00;;
33993;SDS011;20673;48.980;8.138;2022-10-16T03:47:37;4.40;;;2.27;;
33993;SDS011;20673;48.980;8.138;2022-10-16T03:50:03;5.80;;;2.63;;
33993;SDS011;20673;48.980;8.138;2022-10-16T03:52:31;6.00;;;2.30;;
33993;SDS011;20673;48.980;8.138;2022-10-16T03:54:58;5.70;;;2.53;;
33993;SDS011;20673;48.980;8.138;2022-10-16T03:57:24;5.93;;;2.90;;
33993;SDS011;20673;48.980;8.138;2022-10-16T03:59:50;4.43;;;2.57;;
33993;SDS011;20673;48.980;8.138;2022-10-16T04:02:17;6.27;;;2.90;;
33993;SDS011;20673;48.980;8.138;2022-10-16T04:04:43;7.13;;;2.80;;
33993;SDS011;20673;48.980;8.138;2022-10-16T04:07:09;3.77;;;2.03;;
33993;SDS011;20673;48.980;8.138;2022-10-16T04:09:35;2.57;;;1.80;;
33993;SDS011;20673;48.980;8.138;2022-10-16T04:12:02;2.87;;;1.97;;
33993;SDS011;20673;48.980;8.138;2022-10-16T04:14:28;5.30;;;2.80;;
33993;SDS011;20673;48.980;8.138;2022-10-16T04:16:54;5.80;;;2.85;;
33993;SDS011;20673;48.980;8.138;2022-10-16T04:19:20;3.27;;;2.60;;
33993;SDS011;20673;48.980;8.138;2022-10-16T04:21:46;5.50;;;3.17;;
33993;SDS011;20673;48.980;8.138;2022-10-16T04:24:13;4.17;;;2.57;;
33993;SDS011;20673;48.980;8.138;2022-10-16T04:26:39;5.00;;;2.70;;
33993;SDS011;20673;48.980;8.138;2022-10-16T04:29:05;5.73;;;2.37;;
33993;SDS011;20673;48.980;8.138;2022-10-16T04:31:32;7.10;;;2.47;;
33993;SDS011;20673;48.980;8.138;2022-10-16T04:33:59;6.73;;;2.47;;
33993;SDS011;20673;48.980;8.138;2022-10-16T04:36:25;8.50;;;2.17;;
33993;SDS011;20673;48.980;8.138;2022-10-16T04:38:51;3.17;;;2.20;;
33993;SDS011;20673;48.980;8.138;2022-10-16T04:41:17;3.17;;;1.60;;
33993;SDS011;20673;48.980;8.138;2022-10-16T04:43:43;6.00;;;2.63;;
33993;SDS011;20673;48.980;8.138;2022-10-16T04:46:09;6.65;;;2.70;;
33993;SDS011;20673;48.980;8.138;2022-10-16T04:48:35;3.97;;;2.33;;
33993;SDS011;20673;48.980;8.138;2022-10-16T04:51:01;2.90;;;2.27;;
33993;SDS011;20673;48.980;8.138;2022-10-16T04:53:28;4.87;;;2.40;;
33993;SDS011;20673;48.980;8.138;2022-10-16T04:55:54;5.33;;;2.80;;
33993;SDS011;20673;48.980;8.138;2022-10-16T04:58:21;5.73;;;3.43;;
33993;SDS011;20673;48.980;8.138;2022-10-16T05:00:47;3.83;;;2.60;;
33993;SDS011;20673;48.980;8.138;2022-10-16T05:03:13;4.10;;;2.43;;
33993;SDS011;20673;48.980;8.138;2022-10-16T05:05:43;2.63;;;2.30;;
33993;SDS011;20673;48.980;8.138;2022-10-16T05:08:12;2.87;;;2.45;;
33993;SDS011;20673;48.980;8.138;2022-10-16T05:10:43;6.33;;;2.80;;
33993;SDS011;20673;48.980;8.138;2022-10-16T05:13:10;4.57;;;2.47;;
33993;SDS011;20673;48.980;8.138;2022-10-16T05:15:37;3.30;;;3.00;;
33993;SDS011;20673;48.980;8.138;2022-10-16T05:18:03;4.13;;;2.90;;
33993;SDS011;20673;48.980;8.138;2022-10-16T05:20:30;3.70;;;2.70;;
33993;SDS011;20673;48.980;8.138;2022-10-16T05:22:56;5.65;;;3.15;;
33993;SDS011;20673;48.980;8.138;2022-10-16T05:25:22;7.13;;;3.20;;
33993;SDS011;20673;48.980;8.138;2022-10-16T05:27:48;7.20;;;3.80;;
33993;SDS011;20673;48.980;8.138;2022-10-16T05:30:16;9.03;;;4.00;;
33993;SDS011;20673;48.980;8.138;2022-10-16T05:32:50;8.67;;;3.27;;
33993;SDS011;20673;48.980;8.138;2022-10-16T05:35:17;4.67;;;2.97;;
33993;SDS011;20673;48.980;8.138;2022-10-16T05:37:44;5.23;;;2.70;;
33993;SDS011;20673;48.980;8.138;2022-10-16T05:40:10;8.13;;;4.20;;
33993;SDS011;20673;48.980;8.138;2022-10-16T05:42:38;5.77;;;3.43;;
33993;SDS011;20673;48.980;8.138;2022-10-16T05:45:06;3.07;;;2.13;;
33993;SDS011;20673;48.980;8.138;2022-10-16T05:47:35;4.50;;;3.07;;
33993;SDS011;20673;48.980;8.138;2022-10-16T05:50:02;3.23;;;2.70;;
33993;SDS011;20673;48.980;8.138;2022-10-16T05:52:29;6.70;;;3.00;;
33993;SDS011;20673;48.980;8.138;2022-10-16T05:54:56;4.27;;;2.43;;
33993;SDS011;20673;48.980;8.138;2022-10-16T05:57:22;3.77;;;2.80;;
33993;SDS011;20673;48.980;8.138;2022-10-16T05:59:48;6.73;;;3.50;;
33993;SDS011;20673;48.980;8.138;2022-10-16T06:02:16;9.83;;;4.60;;
33993;SDS011;20673;48.980;8.138;2022-10-16T06:04:42;7.07;;;4.13;;
33993;SDS011;20673;48.980;8.138;2022-10-16T06:07:08;5.93;;;3.90;;
33993;SDS011;20673;48.980;8.138;2022-10-16T06:09:34;5.53;;;4.47;;
33993;SDS011;20673;48.980;8.138;2022-10-16T06:12:01;5.03;;;3.00;;
33993;SDS011;20673;48.980;8.138;2022-10-16T06:14:27;5.33;;;3.00;;
33993;SDS011;20673;48.980;8.138;2022-10-16T06:16:53;7.63;;;3.53;;
33993;SDS011;20673;48.980;8.138;2022-10-16T06:19:19;6.73;;;3.57;;
33993;SDS011;20673;48.980;8.138;2022-10-16T06:21:46;10.70;;;3.47;;
33993;SDS011;20673;48.980;8.138;2022-10-16T06:24:12;4.47;;;3.33;;
33993;SDS011;20673;48.980;8.138;2022-10-16T06:26:38;5.53;;;3.10;;
33993;SDS011;20673;48.980;8.138;2022-10-16T06:29:04;6.60;;;3.97;;
33993;SDS011;20673;48.980;8.138;2022-10-16T06:31:31;4.63;;;3.37;;
33993;SDS011;20673;48.980;8.138;2022-10-16T06:33:58;4.90;;;3.20;;
33993;SDS011;20673;48.980;8.138;2022-10-16T06:36:25;3.43;;;2.63;;
33993;SDS011;20673;48.980;8.138;2022-10-16T06:38:52;6.90;;;3.07;;
33993;SDS011;20673;48.980;8.138;2022-10-16T06:41:19;4.73;;;3.10;;
33993;SDS011;20673;48.980;8.138;2022-10-16T06:43:47;2.60;;;2.40;;
33993;SDS011;20673;48.980;8.138;2022-10-16T06:46:15;8.07;;;3.50;;
33993;SDS011;20673;48.980;8.138;2022-10-16T06:48:44;5.95;;;3.20;;
33993;SDS011;20673;48.980;8.138;2022-10-16T06:51:11;6.50;;;4.13;;
33993;SDS011;20673;48.980;8.138;2022-10-16T06:53:41;6.03;;;3.90;;
33993;SDS011;20673;48.980;8.138;2022-10-16T06:56:11;7.67;;;4.50;;
33993;SDS011;20673;48.980;8.138;2022-10-16T06:58:40;13.00;;;5.85;;
33993;SDS011;20673;48.980;8.138;2022-10-16T07:01:07;8.10;;;5.27;;
33993;SDS011;20673;48.980;8.138;2022-10-16T07:03:39;5.80;;;4.70;;
33993;SDS011;20673;48.980;8.138;2022-10-16T07:06:04;4.67;;;3.87;;
33993;SDS011;20673;48.980;8.138;2022-10-16T07:08:37;4.87;;;4.27;;
33993;SDS011;20673;48.980;8.138;2022-10-16T07:11:07;8.10;;;4.00;;
33993;SDS011;20673;48.980;8.138;2022-10-16T07:13:38;5.57;;;4.00;;
33993;SDS011;20673;48.980;8.138;2022-10-16T07:16:07;5.67;;;3.70;;
33993;SDS011;20673;48.980;8.138;2022-10-16T07:18:39;5.87;;;3.73;;
33993;SDS011;20673;48.980;8.138;2022-10-16T07:21:08;3.55;;;3.20;;
33993;SDS011;20673;48.980;8.138;2022-10-16T07:23:39;9.58;;;3.72;;
33993;SDS011;20673;48.980;8.138;2022-10-16T07:26:06;4.00;;;3.10;;
33993;SDS011;20673;48.980;8.138;2022-10-16T07:28:33;3.00;;;2.70;;
33993;SDS011;20673;48.980;8.138;2022-10-16T07:31:01;5.75;;;2.90;;
33993;SDS011;20673;48.980;8.138;2022-10-16T07:33:30;4.55;;;2.90;;
33993;SDS011;20673;48.980;8.138;2022-10-16T07:35:57;5.78;;;4.37;;
33993;SDS011;20673;48.980;8.138;2022-10-16T07:38:23;8.00;;;3.90;;
33993;SDS011;20673;48.980;8.138;2022-10-16T07:40:59;9.28;;;3.27;;
33993;SDS011;20673;48.980;8.138;2022-10-16T07:43:28;7.28;;;3.05;;
33993;SDS011;20673;48.980;8.138;2022-10-16T07:45:55;4.60;;;3.20;;
33993;SDS011;20673;48.980;8.138;2022-10-16T07:48:22;6.35;;;3.08;;
33993;SDS011;20673;48.980;8.138;2022-10-16T07:50:51;6.15;;;2.95;;
33993;SDS011;20673;48.980;8.138;2022-10-16T07:53:17;8.15;;;4.30;;
33993;SDS011;20673;48.980;8.138;2022-10-16T07:55:43;7.37;;;3.58;;
33993;SDS011;20673;48.980;8.138;2022-10-16T07:58:09;5.62;;;3.62;;
33993;SDS011;20673;48.980;8.138;2022-10-16T08:00:36;9.05;;;3.15;;
33993;SDS011;20673;48.980;8.138;2022-10-16T08:03:03;6.12;;;2.95;;
33993;SDS011;20673;48.980;8.138;2022-10-16T08:05:29;4.90;;;2.85;;
33993;SDS011;20673;48.980;8.138;2022-10-16T08:07:58;5.25;;;2.60;;
33993;SDS011;20673;48.980;8.138;2022-10-16T08:10:25;4.35;;;2.27;;
33993;SDS011;20673;48.980;8.138;2022-10-16T08:12:53;4.22;;;2.47;;
33993;SDS011;20673;48.980;8.138;2022-10-16T08:15:19;6.37;;;2.37;;
33993;SDS011;20673;48.980;8.138;2022-10-16T08:17:59;5.12;;;2.75;;
33993;SDS011;20673;48.980;8.138;2022-10-16T08:20:29;6.17;;;2.98;;
33993;SDS011;20673;48.980;8.138;2022-10-16T08:22:57;3.30;;;2.60;;
33993;SDS011;20673;48.980;8.138;2022-10-16T08:25:24;5.47;;;1.98;;
33993;SDS011;20673;48.980;8.138;2022-10-16T08:27:50;3.90;;;2.27;;
33993;SDS011;20673;48.980;8.138;2022-10-16T08:30:17;9.20;;;2.17;;
33993;SDS011;20673;48.980;8.138;2022-10-16T08:32:45;6.95;;;2.17;;
33993;SDS011;20673;48.980;8.138;2022-10-16T08:35:12;6.05;;;2.70;;
33993;SDS011;20673;48.980;8.138;2022-10-16T08:37:40;4.70;;;2.00;;
33993;SDS011;20673;48.980;8.138;2022-10-16T08:40:11;6.67;;;2.70;;
33993;SDS011;20673;48.980;8.138;2022-10-16T08:48:30;6.83;;;2.10;;
33993;SDS011;20673;48.980;8.138;2022-10-16T08:51:18;3.73;;;2.30;;
33993;SDS011;20673;48.980;8.138;2022-10-16T08:53:51;5.47;;;2.27;;
33993;SDS011;20673;48.980;8.138;2022-10-16T08:56:24;3.92;;;2.20;;
33993;SDS011;20673;48.980;8.138;2022-10-16T08:58:52;5.93;;;2.20;;
33993;SDS011;20673;48.980;8.138;2022-10-16T09:01:20;3.95;;;2.37;;
33993;SDS011;20673;48.980;8.138;2022-10-16T09:15:12;2.27;;;1.90;;
33993;SDS011;20673;48.980;8.138;2022-10-16T09:18:00;5.00;;;2.23;;
33993;SDS011;20673;48.980;8.138;2022-10-16T09:20:49;4.97;;;1.77;;
33993;SDS011;20673;48.980;8.138;2022-10-16T09:23:34;2.97;;;2.10;;
33993;SDS011;20673;48.980;8.138;2022-10-16T09:26:03;3.58;;;2.10;;
33993;SDS011;20673;48.980;8.138;2022-10-16T09:28:32;6.03;;;2.30;;
33993;SDS011;20673;48.980;8.138;2022-10-16T09:30:58;4.73;;;2.30;;
33993;SDS011;20673;48.980;8.138;2022-10-16T09:33:29;2.53;;;2.20;;
33993;SDS011;20673;48.980;8.138;2022-10-16T09:36:02;5.23;;;2.40;;
33993;SDS011;20673;48.980;8.138;2022-10-16T09:38:32;6.83;;;2.00;;
33993;SDS011;20673;48.980;8.138;2022-10-16T09:41:02;4.42;;;2.20;;
33993;SDS011;20673;48.980;8.138;2022-10-16T09:43:54;5.12;;;2.12;;
33993;SDS011;20673;48.980;8.138;2022-10-16T09:46:25;3.87;;;2.07;;
33993;SDS011;20673;48.980;8.138;2022-10-16T09:49:02;4.33;;;1.80;;
33993;SDS011;20673;48.980;8.138;2022-10-16T09:54:48;7.05;;;2.45;;
33993;SDS011;20673;48.980;8.138;2022-10-16T09:59:48;2.83;;;1.50;;
33993;SDS011;20673;48.980;8.138;2022-10-16T10:02:33;3.42;;;1.82;;
33993;SDS011;20673;48.980;8.138;2022-10-16T10:04:58;5.40;;;1.72;;
33993;SDS011;20673;48.980;8.138;2022-10-16T10:07:31;5.10;;;2.00;;
33993;SDS011;20673;48.980;8.138;2022-10-16T10:10:05;3.72;;;1.87;;
33993;SDS011;20673;48.980;8.138;2022-10-16T10:12:39;4.15;;;1.85;;
33993;SDS011;20673;48.980;8.138;2022-10-16T10:15:06;2.37;;;1.30;;
33993;SDS011;20673;48.980;8.138;2022-10-16T10:17:47;2.25;;;1.77;;
33993;SDS011;20673;48.980;8.138;2022-10-16T10:20:33;6.97;;;2.52;;
33993;SDS011;20673;48.980;8.138;2022-10-16T10:23:23;3.00;;;1.30;;
33993;SDS011;20673;48.980;8.138;2022-10-16T10:25:51;2.55;;;1.50;;
33993;SDS011;20673;48.980;8.138;2022-10-16T10:28:35;4.28;;;1.42;;
33993;SDS011;20673;48.980;8.138;2022-10-16T10:31:20;4.60;;;1.30;;
33993;SDS011;20673;48.980;8.138;2022-10-16T10:37:10;7.15;;;1.32;;
33993;SDS011;20673;48.980;8.138;2022-10-16T10:42:42;5.40;;;1.65;;
33993;SDS011;20673;48.980;8.138;2022-10-16T10:45:14;5.05;;;1.50;;
33993;SDS011;20673;48.980;8.138;2022-10-16T10:58:51;9.40;;;1.60;;
33993;SDS011;20673;48.980;8.138;2022-10-16T11:07:53;5.03;;;1.62;;
33993;SDS011;20673;48.980;8.138;2022-10-16T11:10:49;6.03;;;1.60;;
33993;SDS011;20673;48.980;8.138;2022-10-16T11:13:21;1.92;;;1.35;;
33993;SDS011;20673;48.980;8.138;2022-10-16T11:16:06;3.40;;;1.57;;
33993;SDS011;20673;48.980;8.138;2022-10-16T11:21:34;3.55;;;1.50;;
33993;SDS011;20673;48.980;8.138;2022-10-16T11:24:05;5.35;;;1.60;;
33993;SDS011;20673;48.980;8.138;2022-10-16T11:26:44;1.92;;;1.30;;
33993;SDS011;20673;48.980;8.138;2022-10-16T11:29:19;1.85;;;1.35;;
33993;SDS011;20673;48.980;8.138;2022-10-16T11:31:53;3.70;;;1.57;;
33993;SDS011;20673;48.980;8.138;2022-10-16T11:34:38;6.90;;;1.85;;
33993;SDS011;20673;48.980;8.138;2022-10-16T11:39:48;5.85;;;1.70;;
33993;SDS011;20673;48.980;8.138;2022-10-16T11:42:22;5.30;;;1.50;;
33993;SDS011;20673;48.980;8.138;2022-10-16T11:44:59;5.95;;;1.55;;
33993;SDS011;20673;48.980;8.138;2022-10-16T11:47:48;3.65;;;1.37;;
33993;SDS011;20673;48.980;8.138;2022-10-16T11:56:01;3.22;;;1.50;;
33993;SDS011;20673;48.980;8.138;2022-10-16T11:58:32;6.00;;;1.80;;
33993;SDS011;20673;48.980;8.138;2022-10-16T12:03:56;2.22;;;1.30;;
33993;SDS011;20673;48.980;8.138;2022-10-16T12:06:55;5.45;;;1.77;;
33993;SDS011;20673;48.980;8.138;2022-10-16T12:09:36;5.12;;;1.65;;
33993;SDS011;20673;48.980;8.138;2022-10-16T12:12:04;1.65;;;1.40;;
33993;SDS011;20673;48.980;8.138;2022-10-16T12:15:51;4.05;;;1.40;;
33993;SDS011;20673;48.980;8.138;2022-10-16T12:17:47;1.40;;;1.20;;
33993;SDS011;20673;48.980;8.138;2022-10-16T12:22:54;2.67;;;1.30;;
33993;SDS011;20673;48.980;8.138;2022-10-16T12:28:00;1.82;;;1.47;;
33993;SDS011;20673;48.980;8.138;2022-10-16T12:30:34;1.65;;;1.55;;
33993;SDS011;20673;48.980;8.138;2022-10-16T12:33:03;3.60;;;1.30;;
33993;SDS011;20673;48.980;8.138;2022-10-16T12:35:51;5.37;;;1.45;;
33993;SDS011;20673;48.980;8.138;2022-10-16T12:41:04;4.40;;;1.72;;
33993;SDS011;20673;48.980;8.138;2022-10-16T12:43:41;4.20;;;1.40;;
33993;SDS011;20673;48.980;8.138;2022-10-16T12:48:46;1.80;;;1.40;;
33993;SDS011;20673;48.980;8.138;2022-10-16T12:54:04;3.02;;;1.20;;
33993;SDS011;20673;48.980;8.138;2022-10-16T12:56:37;2.80;;;1.05;;
33993;SDS011;20673;48.980;8.138;2022-10-16T13:05:46;3.98;;;1.25;;
33993;SDS011;20673;48.980;8.138;2022-10-16T13:29:05;2.43;;;1.40;;
33993;SDS011;20673;48.980;8.138;2022-10-16T13:31:31;3.15;;;1.47;;
33993;SDS011;20673;48.980;8.138;2022-10-16T13:33:59;2.10;;;1.40;;
33993;SDS011;20673;48.980;8.138;2022-10-16T13:39:10;8.83;;;1.90;;
33993;SDS011;20673;48.980;8.138;2022-10-16T13:42:00;3.02;;;1.30;;
33993;SDS011;20673;48.980;8.138;2022-10-16T13:44:45;4.23;;;1.70;;
33993;SDS011;20673;48.980;8.138;2022-10-16T13:47:23;4.57;;;1.80;;
33993;SDS011;20673;48.980;8.138;2022-10-16T13:49:59;3.42;;;1.57;;
33993;SDS011;20673;48.980;8.138;2022-10-16T13:52:32;5.53;;;1.70;;
33993;SDS011;20673;48.980;8.138;2022-10-16T13:54:58;6.60;;;1.92;;
33993;SDS011;20673;48.980;8.138;2022-10-16T13:57:25;2.53;;;1.40;;
33993;SDS011;20673;48.980;8.138;2022-10-16T13:59:53;3.57;;;1.63;;
33993;SDS011;20673;48.980;8.138;2022-10-16T14:02:26;6.00;;;1.70;;
33993;SDS011;20673;48.980;8.138;2022-10-16T14:04:57;3.25;;;1.52;;
33993;SDS011;20673;48.980;8.138;2022-10-16T14:07:25;5.83;;;1.60;;
33993;SDS011;20673;48.980;8.138;2022-10-16T14:09:54;5.67;;;1.50;;
33993;SDS011;20673;48.980;8.138;2022-10-16T14:12:22;9.38;;;1.80;;
33993;SDS011;20673;48.980;8.138;2022-10-16T14:14:50;6.17;;;1.70;;
33993;SDS011;20673;48.980;8.138;2022-10-16T14:17:20;3.62;;;1.80;;
33993;SDS011;20673;48.980;8.138;2022-10-16T14:19:51;6.72;;;2.00;;
33993;SDS011;20673;48.980;8.138;2022-10-16T14:22:37;3.67;;;1.98;;
33993;SDS011;20673;48.980;8.138;2022-10-16T14:28:13;3.90;;;1.80;;
33993;SDS011;20673;48.980;8.138;2022-10-16T14:30:57;5.87;;;1.87;;
33993;SDS011;20673;48.980;8.138;2022-10-16T14:38:37;3.47;;;1.60;;
33993;SDS011;20673;48.980;8.138;2022-10-16T14:41:06;4.70;;;1.90;;
33993;SDS011;20673;48.980;8.138;2022-10-16T14:43:36;6.47;;;1.70;;
33993;SDS011;20673;48.980;8.138;2022-10-16T14:46:13;3.80;;;1.60;;
33993;SDS011;20673;48.980;8.138;2022-10-16T14:48:43;6.53;;;1.70;;
33993;SDS011;20673;48.980;8.138;2022-10-16T14:51:19;1.90;;;1.50;;
33993;SDS011;20673;48.980;8.138;2022-10-16T14:53:46;2.17;;;1.45;;
33993;SDS011;20673;48.980;8.138;2022-10-16T14:56:19;2.62;;;1.30;;
33993;SDS011;20673;48.980;8.138;2022-10-16T14:58:52;6.20;;;1.45;;
33993;SDS011;20673;48.980;8.138;2022-10-16T15:01:19;2.25;;;1.20;;
33993;SDS011;20673;48.980;8.138;2022-10-16T15:03:46;2.50;;;1.17;;
33993;SDS011;20673;48.980;8.138;2022-10-16T15:06:13;5.47;;;1.50;;
33993;SDS011;20673;48.980;8.138;2022-10-16T15:08:41;5.50;;;1.92;;
33993;SDS011;20673;48.980;8.138;2022-10-16T15:11:15;8.73;;;1.57;;
33993;SDS011;20673;48.980;8.138;2022-10-16T15:13:44;4.30;;;1.40;;
33993;SDS011;20673;48.980;8.138;2022-10-16T15:16:12;4.97;;;1.85;;
33993;SDS011;20673;48.980;8.138;2022-10-16T15:18:41;2.08;;;1.60;;
33993;SDS011;20673;48.980;8.138;2022-10-16T15:21:09;3.15;;;1.47;;
33993;SDS011;20673;48.980;8.138;2022-10-16T15:23:51;6.83;;;1.92;;
33993;SDS011;20673;48.980;8.138;2022-10-16T15:26:18;3.60;;;1.85;;
33993;SDS011;20673;48.980;8.138;2022-10-16T15:28:44;3.45;;;1.80;;
33993;SDS011;20673;48.980;8.138;2022-10-16T15:31:11;3.45;;;1.47;;
33993;SDS011;20673;48.980;8.138;2022-10-16T15:33:37;2.50;;;1.75;;
33993;SDS011;20673;48.980;8.138;2022-10-16T15:36:03;3.65;;;2.37;;
33993;SDS011;20673;48.980;8.138;2022-10-16T15:38:30;6.22;;;2.30;;
33993;SDS011;20673;48.980;8.138;2022-10-16T15:40:56;2.52;;;1.90;;
33993;SDS011;20673;48.980;8.138;2022-10-16T15:43:23;7.20;;;1.80;;
33993;SDS011;20673;48.980;8.138;2022-10-16T15:45:58;6.17;;;2.10;;
33993;SDS011;20673;48.980;8.138;2022-10-16T15:48:30;7.00;;;2.45;;
33993;SDS011;20673;48.980;8.138;2022-10-16T15:50:58;9.45;;;3.08;;
33993;SDS011;20673;48.980;8.138;2022-10-16T15:53:25;2.50;;;2.25;;
33993;SDS011;20673;48.980;8.138;2022-10-16T15:55:51;4.50;;;2.10;;
33993;SDS011;20673;48.980;8.138;2022-10-16T15:58:18;4.67;;;1.95;;
33993;SDS011;20673;48.980;8.138;2022-10-16T16:00:44;5.65;;;1.90;;
33993;SDS011;20673;48.980;8.138;2022-10-16T16:03:10;8.45;;;2.33;;
33993;SDS011;20673;48.980;8.138;2022-10-16T16:05:39;10.95;;;2.47;;
33993;SDS011;20673;48.980;8.138;2022-10-16T16:08:06;6.45;;;2.15;;
33993;SDS011;20673;48.980;8.138;2022-10-16T16:10:32;4.47;;;2.00;;
33993;SDS011;20673;48.980;8.138;2022-10-16T16:12:58;5.27;;;1.90;;
33993;SDS011;20673;48.980;8.138;2022-10-16T16:15:25;6.03;;;2.10;;
33993;SDS011;20673;48.980;8.138;2022-10-16T16:17:51;6.33;;;2.23;;
33993;SDS011;20673;48.980;8.138;2022-10-16T16:20:17;6.30;;;2.20;;
33993;SDS011;20673;48.980;8.138;2022-10-16T16:22:43;5.50;;;2.60;;
33993;SDS011;20673;48.980;8.138;2022-10-16T16:25:09;6.40;;;2.53;;
33993;SDS011;20673;48.980;8.138;2022-10-16T16:27:36;7.57;;;2.70;;
33993;SDS011;20673;48.980;8.138;2022-10-16T16:30:04;9.83;;;2.50;;
33993;SDS011;20673;48.980;8.138;2022-10-16T16:32:33;2.80;;;1.87;;
33993;SDS011;20673;48.980;8.138;2022-10-16T16:35:00;5.08;;;2.05;;
33993;SDS011;20673;48.980;8.138;2022-10-16T16:37:27;5.97;;;2.10;;
33993;SDS011;20673;48.980;8.138;2022-10-16T16:39:54;3.67;;;2.00;;
33993;SDS011;20673;48.980;8.138;2022-10-16T16:42:22;4.77;;;3.47;;
33993;SDS011;20673;48.980;8.138;2022-10-16T16:44:49;7.93;;;3.70;;
33993;SDS011;20673;48.980;8.138;2022-10-16T16:47:15;9.20;;;4.77;;
33993;SDS011;20673;48.980;8.138;2022-10-16T16:49:42;5.70;;;3.60;;
33993;SDS011;20673;48.980;8.138;2022-10-16T16:52:08;9.30;;;3.33;;
33993;SDS011;20673;48.980;8.138;2022-10-16T16:54:34;8.50;;;2.70;;
33993;SDS011;20673;48.980;8.138;2022-10-16T16:57:01;9.97;;;3.20;;
33993;SDS011;20673;48.980;8.138;2022-10-16T16:59:28;7.70;;;2.73;;
33993;SDS011;20673;48.980;8.138;2022-10-16T17:01:56;5.43;;;2.70;;
33993;SDS011;20673;48.980;8.138;2022-10-16T17:04:22;5.87;;;3.43;;
33993;SDS011;20673;48.980;8.138;2022-10-16T17:06:48;10.03;;;3.00;;
33993;SDS011;20673;48.980;8.138;2022-10-16T17:09:15;4.47;;;2.30;;
33993;SDS011;20673;48.980;8.138;2022-10-16T17:11:41;11.73;;;2.43;;
33993;SDS011;20673;48.980;8.138;2022-10-16T17:14:10;6.87;;;2.37;;
33993;SDS011;20673;48.980;8.138;2022-10-16T17:16:36;7.40;;;2.60;;
33993;SDS011;20673;48.980;8.138;2022-10-16T17:19:05;7.08;;;2.33;;
33993;SDS011;20673;48.980;8.138;2022-10-16T17:21:35;5.15;;;2.72;;